sensor_id;sensor_type;location;lat;lon;timestamp;temperature;humidity
78467;SHT31;67759;51.972;5.650;2023-05-21T00:01:32;17.1;52.7
78467;SHT31;67759;51.972;5.650;2023-05-21T00:04:01;17.1;53.0
78467;SHT31;67759;51.972;5.650;2023-05-21T00:06:32;17.1;53.2
78467;SHT31;67759;51.972;5.650;2023-05-21T00:09:04;17.1;53.3
78467;SHT31;67759;51.972;5.650;2023-05-21T00:11:35;17.1;53.0
78467;SHT31;67759;51.972;5.650;2023-05-21T00:14:04;17.1;53.0
78467;SHT31;67759;51.972;5.650;2023-05-21T00:16:36;17.1;52.8
78467;SHT31;67759;51.972;5.650;2023-05-21T00:19:07;17.1;53.2
78467;SHT31;67759;51.972;5.650;2023-05-21T00:21:36;17.0;53.5
78467;SHT31;67759;51.972;5.650;2023-05-21T00:24:07;17.0;52.7
78467;SHT31;67759;51.972;5.650;2023-05-21T00:26:37;17.0;53.3
78467;SHT31;67759;51.972;5.650;2023-05-21T00:29:06;17.0;52.7
78467;SHT31;67759;51.972;5.650;2023-05-21T00:31:36;17.0;53.2
78467;SHT31;67759;51.972;5.650;2023-05-21T00:34:05;17.0;53.1
78467;SHT31;67759;51.972;5.650;2023-05-21T00:36:35;17.0;53.5
78467;SHT31;67759;51.972;5.650;2023-05-21T00:39:06;17.0;53.7
78467;SHT31;67759;51.972;5.650;2023-05-21T00:41:36;16.9;53.2
78467;SHT31;67759;51.972;5.650;2023-05-21T00:44:06;16.9;53.5
78467;SHT31;67759;51.972;5.650;2023-05-21T00:46:36;16.9;52.1
78467;SHT31;67759;51.972;5.650;2023-05-21T00:49:06;16.9;53.4
78467;SHT31;67759;51.972;5.650;2023-05-21T00:51:36;16.9;54.1
78467;SHT31;67759;51.972;5.650;2023-05-21T00:54:06;17.0;54.4
78467;SHT31;67759;51.972;5.650;2023-05-21T00:56:36;17.0;54.0
78467;SHT31;67759;51.972;5.650;2023-05-21T00:59:07;17.0;53.5
78467;SHT31;67759;51.972;5.650;2023-05-21T01:01:38;17.0;54.1
78467;SHT31;67759;51.972;5.650;2023-05-21T01:04:08;17.1;53.8
78467;SHT31;67759;51.972;5.650;2023-05-21T01:06:38;17.1;53.6
78467;SHT31;67759;51.972;5.650;2023-05-21T01:09:09;17.1;54.2
78467;SHT31;67759;51.972;5.650;2023-05-21T01:11:40;17.1;54.0
78467;SHT31;67759;51.972;5.650;2023-05-21T01:14:12;17.1;53.9
78467;SHT31;67759;51.972;5.650;2023-05-21T01:16:45;17.1;53.4
78467;SHT31;67759;51.972;5.650;2023-05-21T01:19:19;17.1;53.8
78467;SHT31;67759;51.972;5.650;2023-05-21T01:22:00;17.1;53.8
78467;SHT31;67759;51.972;5.650;2023-05-21T01:24:31;17.1;53.1
78467;SHT31;67759;51.972;5.650;2023-05-21T01:27:05;17.1;53.8
78467;SHT31;67759;51.972;5.650;2023-05-21T01:29:36;17.1;53.7
78467;SHT31;67759;51.972;5.650;2023-05-21T01:32:12;17.1;54.2
78467;SHT31;67759;51.972;5.650;2023-05-21T01:34:51;17.1;53.5
78467;SHT31;67759;51.972;5.650;2023-05-21T01:37:29;17.0;54.3
78467;SHT31;67759;51.972;5.650;2023-05-21T01:40:06;17.0;53.9
78467;SHT31;67759;51.972;5.650;2023-05-21T01:42:38;17.0;54.4
78467;SHT31;67759;51.972;5.650;2023-05-21T01:45:13;17.0;53.7
78467;SHT31;67759;51.972;5.650;2023-05-21T01:47:48;17.0;53.7
78467;SHT31;67759;51.972;5.650;2023-05-21T01:50:19;17.0;54.4
78467;SHT31;67759;51.972;5.650;2023-05-21T01:52:51;17.0;54.6
78467;SHT31;67759;51.972;5.650;2023-05-21T01:55:23;17.0;54.4
78467;SHT31;67759;51.972;5.650;2023-05-21T01:57:54;16.9;54.7
78467;SHT31;67759;51.972;5.650;2023-05-21T02:00:25;16.9;54.9
78467;SHT31;67759;51.972;5.650;2023-05-21T02:02:57;16.9;54.3
78467;SHT31;67759;51.972;5.650;2023-05-21T02:05:27;16.9;55.2
78467;SHT31;67759;51.972;5.650;2023-05-21T02:07:57;16.9;54.4
78467;SHT31;67759;51.972;5.650;2023-05-21T02:10:28;16.8;55.4
78467;SHT31;67759;51.972;5.650;2023-05-21T02:12:57;16.8;55.9
78467;SHT31;67759;51.972;5.650;2023-05-21T02:15:28;16.8;55.9
78467;SHT31;67759;51.972;5.650;2023-05-21T02:18:00;16.7;54.2
78467;SHT31;67759;51.972;5.650;2023-05-21T02:20:31;16.7;56.5
78467;SHT31;67759;51.972;5.650;2023-05-21T02:23:00;16.7;56.3
78467;SHT31;67759;51.972;5.650;2023-05-21T02:25:30;16.7;55.8
78467;SHT31;67759;51.972;5.650;2023-05-21T02:28:00;16.7;56.2
78467;SHT31;67759;51.972;5.650;2023-05-21T02:30:30;16.7;55.3
78467;SHT31;67759;51.972;5.650;2023-05-21T02:32:59;16.7;54.7
78467;SHT31;67759;51.972;5.650;2023-05-21T02:35:29;16.7;56.2
78467;SHT31;67759;51.972;5.650;2023-05-21T02:37:59;16.7;56.2
78467;SHT31;67759;51.972;5.650;2023-05-21T02:40:32;16.7;56.0
78467;SHT31;67759;51.972;5.650;2023-05-21T02:43:03;16.7;55.5
78467;SHT31;67759;51.972;5.650;2023-05-21T02:45:32;16.7;56.3
78467;SHT31;67759;51.972;5.650;2023-05-21T02:48:02;16.7;56.2
78467;SHT31;67759;51.972;5.650;2023-05-21T02:50:32;16.7;55.6
78467;SHT31;67759;51.972;5.650;2023-05-21T02:53:02;16.7;56.2
78467;SHT31;67759;51.972;5.650;2023-05-21T02:55:32;16.7;56.6
78467;SHT31;67759;51.972;5.650;2023-05-21T02:58:02;16.7;56.9
78467;SHT31;67759;51.972;5.650;2023-05-21T03:00:31;16.7;55.8
78467;SHT31;67759;51.972;5.650;2023-05-21T03:03:01;16.7;56.2
78467;SHT31;67759;51.972;5.650;2023-05-21T03:05:30;16.8;56.6
78467;SHT31;67759;51.972;5.650;2023-05-21T03:08:00;16.8;54.8
78467;SHT31;67759;51.972;5.650;2023-05-21T03:10:30;16.8;56.2
78467;SHT31;67759;51.972;5.650;2023-05-21T03:12:59;16.8;55.6
78467;SHT31;67759;51.972;5.650;2023-05-21T03:15:31;16.8;55.6
78467;SHT31;67759;51.972;5.650;2023-05-21T03:18:02;16.8;56.6
78467;SHT31;67759;51.972;5.650;2023-05-21T03:20:34;16.7;56.5
78467;SHT31;67759;51.972;5.650;2023-05-21T03:23:09;16.7;56.3
78467;SHT31;67759;51.972;5.650;2023-05-21T03:25:39;16.7;56.5
78467;SHT31;67759;51.972;5.650;2023-05-21T03:28:09;16.7;56.5
78467;SHT31;67759;51.972;5.650;2023-05-21T03:30:38;16.7;56.5
78467;SHT31;67759;51.972;5.650;2023-05-21T03:33:08;16.7;56.2
78467;SHT31;67759;51.972;5.650;2023-05-21T03:35:37;16.7;57.3
78467;SHT31;67759;51.972;5.650;2023-05-21T03:38:07;16.7;56.3
78467;SHT31;67759;51.972;5.650;2023-05-21T03:40:38;16.7;56.7
78467;SHT31;67759;51.972;5.650;2023-05-21T03:43:07;16.7;57.2
78467;SHT31;67759;51.972;5.650;2023-05-21T03:45:37;16.7;57.0
78467;SHT31;67759;51.972;5.650;2023-05-21T03:48:07;16.7;57.1
78467;SHT31;67759;51.972;5.650;2023-05-21T03:50:36;16.8;57.1
78467;SHT31;67759;51.972;5.650;2023-05-21T03:53:05;16.8;56.8
78467;SHT31;67759;51.972;5.650;2023-05-21T03:55:37;16.8;56.5
78467;SHT31;67759;51.972;5.650;2023-05-21T03:58:10;16.8;57.2
78467;SHT31;67759;51.972;5.650;2023-05-21T04:00:39;16.8;57.3
78467;SHT31;67759;51.972;5.650;2023-05-21T04:03:10;16.9;57.0
78467;SHT31;67759;51.972;5.650;2023-05-21T04:05:41;16.9;57.2
78467;SHT31;67759;51.972;5.650;2023-05-21T04:08:11;16.9;56.5
78467;SHT31;67759;51.972;5.650;2023-05-21T04:10:40;16.9;57.2
78467;SHT31;67759;51.972;5.650;2023-05-21T04:13:10;16.9;57.2
78467;SHT31;67759;51.972;5.650;2023-05-21T04:15:39;16.9;57.2
78467;SHT31;67759;51.972;5.650;2023-05-21T04:18:12;16.9;57.0
78467;SHT31;67759;51.972;5.650;2023-05-21T04:20:43;16.9;57.6
78467;SHT31;67759;51.972;5.650;2023-05-21T04:23:12;16.9;57.7
78467;SHT31;67759;51.972;5.650;2023-05-21T04:25:42;16.9;57.5
78467;SHT31;67759;51.972;5.650;2023-05-21T04:28:11;16.9;58.2
78467;SHT31;67759;51.972;5.650;2023-05-21T04:30:46;16.9;57.9
78467;SHT31;67759;51.972;5.650;2023-05-21T04:33:16;16.9;57.7
78467;SHT31;67759;51.972;5.650;2023-05-21T04:35:50;16.9;57.6
78467;SHT31;67759;51.972;5.650;2023-05-21T04:38:22;16.9;56.3
78467;SHT31;67759;51.972;5.650;2023-05-21T04:40:52;16.9;58.1
78467;SHT31;67759;51.972;5.650;2023-05-21T04:43:22;16.9;57.8
78467;SHT31;67759;51.972;5.650;2023-05-21T04:45:53;16.9;57.7
78467;SHT31;67759;51.972;5.650;2023-05-21T04:48:23;16.9;57.6
78467;SHT31;67759;51.972;5.650;2023-05-21T04:50:53;16.9;58.1
78467;SHT31;67759;51.972;5.650;2023-05-21T04:53:24;16.9;57.6
78467;SHT31;67759;51.972;5.650;2023-05-21T04:55:55;16.9;57.7
78467;SHT31;67759;51.972;5.650;2023-05-21T04:58:25;16.9;58.1
78467;SHT31;67759;51.972;5.650;2023-05-21T05:00:55;16.9;58.1
78467;SHT31;67759;51.972;5.650;2023-05-21T05:03:25;16.9;57.9
78467;SHT31;67759;51.972;5.650;2023-05-21T05:05:54;16.9;58.5
78467;SHT31;67759;51.972;5.650;2023-05-21T05:08:24;16.9;58.0
78467;SHT31;67759;51.972;5.650;2023-05-21T05:10:53;16.9;58.3
78467;SHT31;67759;51.972;5.650;2023-05-21T05:13:23;16.9;58.3
78467;SHT31;67759;51.972;5.650;2023-05-21T05:15:52;16.9;59.1
78467;SHT31;67759;51.972;5.650;2023-05-21T05:18:23;16.9;58.6
78467;SHT31;67759;51.972;5.650;2023-05-21T05:20:53;16.9;59.5
78467;SHT31;67759;51.972;5.650;2023-05-21T05:23:22;16.9;59.2
78467;SHT31;67759;51.972;5.650;2023-05-21T05:25:52;16.9;59.0
78467;SHT31;67759;51.972;5.650;2023-05-21T05:28:22;17.0;58.6
78467;SHT31;67759;51.972;5.650;2023-05-21T05:30:52;17.0;58.9
78467;SHT31;67759;51.972;5.650;2023-05-21T05:33:22;17.0;59.4
78467;SHT31;67759;51.972;5.650;2023-05-21T05:35:52;17.0;58.6
78467;SHT31;67759;51.972;5.650;2023-05-21T05:38:22;17.0;59.0
78467;SHT31;67759;51.972;5.650;2023-05-21T05:40:51;17.1;59.2
78467;SHT31;67759;51.972;5.650;2023-05-21T05:43:21;17.1;59.5
78467;SHT31;67759;51.972;5.650;2023-05-21T05:45:51;17.1;57.3
78467;SHT31;67759;51.972;5.650;2023-05-21T05:48:20;17.2;58.1
78467;SHT31;67759;51.972;5.650;2023-05-21T05:50:50;17.2;58.7
78467;SHT31;67759;51.972;5.650;2023-05-21T05:53:21;17.2;58.8
78467;SHT31;67759;51.972;5.650;2023-05-21T05:55:51;17.3;58.8
78467;SHT31;67759;51.972;5.650;2023-05-21T05:58:21;17.3;58.7
78467;SHT31;67759;51.972;5.650;2023-05-21T06:00:50;17.3;58.8
78467;SHT31;67759;51.972;5.650;2023-05-21T06:03:20;17.3;58.2
78467;SHT31;67759;51.972;5.650;2023-05-21T06:05:50;17.4;59.0
78467;SHT31;67759;51.972;5.650;2023-05-21T06:08:20;17.4;59.7
78467;SHT31;67759;51.972;5.650;2023-05-21T06:10:49;17.4;58.5
78467;SHT31;67759;51.972;5.650;2023-05-21T06:13:19;17.4;57.9
78467;SHT31;67759;51.972;5.650;2023-05-21T06:15:48;17.5;58.4
78467;SHT31;67759;51.972;5.650;2023-05-21T06:18:19;17.5;58.4
78467;SHT31;67759;51.972;5.650;2023-05-21T06:20:49;17.5;58.5
78467;SHT31;67759;51.972;5.650;2023-05-21T06:23:23;17.5;58.7
78467;SHT31;67759;51.972;5.650;2023-05-21T06:25:52;17.5;58.8
78467;SHT31;67759;51.972;5.650;2023-05-21T06:28:24;17.5;59.2
78467;SHT31;67759;51.972;5.650;2023-05-21T06:30:53;17.5;59.3
78467;SHT31;67759;51.972;5.650;2023-05-21T06:33:23;17.5;59.3
78467;SHT31;67759;51.972;5.650;2023-05-21T06:35:54;17.6;59.1
78467;SHT31;67759;51.972;5.650;2023-05-21T06:38:25;17.6;58.0
78467;SHT31;67759;51.972;5.650;2023-05-21T06:40:54;17.6;58.5
78467;SHT31;67759;51.972;5.650;2023-05-21T06:43:24;17.7;59.1
78467;SHT31;67759;51.972;5.650;2023-05-21T06:45:55;17.7;58.5
78467;SHT31;67759;51.972;5.650;2023-05-21T06:48:24;17.8;58.9
78467;SHT31;67759;51.972;5.650;2023-05-21T06:50:54;17.8;58.5
78467;SHT31;67759;51.972;5.650;2023-05-21T06:53:24;17.9;58.5
78467;SHT31;67759;51.972;5.650;2023-05-21T06:55:53;17.9;58.6
78467;SHT31;67759;51.972;5.650;2023-05-21T06:58:23;18.0;58.2
78467;SHT31;67759;51.972;5.650;2023-05-21T07:00:57;18.0;57.6
78467;SHT31;67759;51.972;5.650;2023-05-21T07:03:27;18.0;57.9
78467;SHT31;67759;51.972;5.650;2023-05-21T07:05:57;18.1;57.5
78467;SHT31;67759;51.972;5.650;2023-05-21T07:08:27;18.1;57.8
78467;SHT31;67759;51.972;5.650;2023-05-21T07:10:56;18.1;57.1
78467;SHT31;67759;51.972;5.650;2023-05-21T07:13:26;18.2;57.3
78467;SHT31;67759;51.972;5.650;2023-05-21T07:15:55;18.2;57.6
78467;SHT31;67759;51.972;5.650;2023-05-21T07:18:25;18.2;57.7
78467;SHT31;67759;51.972;5.650;2023-05-21T07:20:54;18.3;57.7
78467;SHT31;67759;51.972;5.650;2023-05-21T07:23:25;18.4;57.0
78467;SHT31;67759;51.972;5.650;2023-05-21T07:25:55;18.5;56.9
78467;SHT31;67759;51.972;5.650;2023-05-21T07:28:26;18.6;56.4
78467;SHT31;67759;51.972;5.650;2023-05-21T07:30:56;18.7;56.3
78467;SHT31;67759;51.972;5.650;2023-05-21T07:33:25;18.8;55.8
78467;SHT31;67759;51.972;5.650;2023-05-21T07:35:55;18.8;56.6
78467;SHT31;67759;51.972;5.650;2023-05-21T07:38:24;18.9;56.3
78467;SHT31;67759;51.972;5.650;2023-05-21T07:40:54;19.0;56.3
78467;SHT31;67759;51.972;5.650;2023-05-21T07:43:24;19.1;56.1
78467;SHT31;67759;51.972;5.650;2023-05-21T07:45:55;19.3;56.3
78467;SHT31;67759;51.972;5.650;2023-05-21T07:48:27;19.5;55.8
78467;SHT31;67759;51.972;5.650;2023-05-21T07:50:57;19.7;54.4
78467;SHT31;67759;51.972;5.650;2023-05-21T07:53:27;19.9;53.8
78467;SHT31;67759;51.972;5.650;2023-05-21T07:55:58;20.1;53.6
78467;SHT31;67759;51.972;5.650;2023-05-21T07:58:28;20.2;52.8
78467;SHT31;67759;51.972;5.650;2023-05-21T08:01:02;20.4;52.5
78467;SHT31;67759;51.972;5.650;2023-05-21T08:03:34;20.5;52.2
78467;SHT31;67759;51.972;5.650;2023-05-21T08:06:04;20.7;51.8
78467;SHT31;67759;51.972;5.650;2023-05-21T08:08:33;20.8;51.7
78467;SHT31;67759;51.972;5.650;2023-05-21T08:11:03;21.0;51.3
78467;SHT31;67759;51.972;5.650;2023-05-21T08:13:32;21.1;50.6
78467;SHT31;67759;51.972;5.650;2023-05-21T08:16:01;21.2;50.7
78467;SHT31;67759;51.972;5.650;2023-05-21T08:18:31;21.3;50.2
78467;SHT31;67759;51.972;5.650;2023-05-21T08:21:01;21.4;50.9
78467;SHT31;67759;51.972;5.650;2023-05-21T08:23:30;21.5;50.5
78467;SHT31;67759;51.972;5.650;2023-05-21T08:26:00;21.6;50.2
78467;SHT31;67759;51.972;5.650;2023-05-21T08:28:29;21.7;49.7
78467;SHT31;67759;51.972;5.650;2023-05-21T08:30:59;21.8;49.5
78467;SHT31;67759;51.972;5.650;2023-05-21T08:33:28;21.9;49.8
78467;SHT31;67759;51.972;5.650;2023-05-21T08:35:58;22.0;48.8
78467;SHT31;67759;51.972;5.650;2023-05-21T08:38:27;22.2;48.2
78467;SHT31;67759;51.972;5.650;2023-05-21T08:40:58;22.2;49.1
78467;SHT31;67759;51.972;5.650;2023-05-21T08:43:29;22.3;48.5
78467;SHT31;67759;51.972;5.650;2023-05-21T08:45:59;22.4;47.6
78467;SHT31;67759;51.972;5.650;2023-05-21T08:48:31;22.6;48.0
78467;SHT31;67759;51.972;5.650;2023-05-21T08:51:00;22.7;48.3
78467;SHT31;67759;51.972;5.650;2023-05-21T08:53:31;22.7;47.0
78467;SHT31;67759;51.972;5.650;2023-05-21T08:56:01;22.8;47.8
78467;SHT31;67759;51.972;5.650;2023-05-21T08:58:31;22.9;47.2
78467;SHT31;67759;51.972;5.650;2023-05-21T09:01:02;23.0;47.3
78467;SHT31;67759;51.972;5.650;2023-05-21T09:03:33;23.1;46.6
78467;SHT31;67759;51.972;5.650;2023-05-21T09:06:09;23.2;46.7
78467;SHT31;67759;51.972;5.650;2023-05-21T09:08:42;23.3;46.0
78467;SHT31;67759;51.972;5.650;2023-05-21T09:11:15;23.3;46.0
78467;SHT31;67759;51.972;5.650;2023-05-21T09:13:45;23.3;45.9
78467;SHT31;67759;51.972;5.650;2023-05-21T09:16:15;23.4;45.6
78467;SHT31;67759;51.972;5.650;2023-05-21T09:18:44;23.4;45.7
78467;SHT31;67759;51.972;5.650;2023-05-21T09:21:24;23.4;46.0
78467;SHT31;67759;51.972;5.650;2023-05-21T09:23:56;23.4;45.6
78467;SHT31;67759;51.972;5.650;2023-05-21T09:26:26;23.4;46.0
78467;SHT31;67759;51.972;5.650;2023-05-21T09:28:58;23.4;46.1
78467;SHT31;67759;51.972;5.650;2023-05-21T09:31:28;23.5;46.5
78467;SHT31;67759;51.972;5.650;2023-05-21T09:33:59;23.5;46.1
78467;SHT31;67759;51.972;5.650;2023-05-21T09:36:31;23.6;45.8
78467;SHT31;67759;51.972;5.650;2023-05-21T09:39:01;23.6;46.0
78467;SHT31;67759;51.972;5.650;2023-05-21T09:41:34;23.6;45.6
78467;SHT31;67759;51.972;5.650;2023-05-21T09:44:04;23.7;45.1
78467;SHT31;67759;51.972;5.650;2023-05-21T09:46:40;23.7;44.9
78467;SHT31;67759;51.972;5.650;2023-05-21T09:49:24;23.7;45.5
78467;SHT31;67759;51.972;5.650;2023-05-21T09:51:57;23.8;45.3
78467;SHT31;67759;51.972;5.650;2023-05-21T09:54:31;23.9;44.9
78467;SHT31;67759;51.972;5.650;2023-05-21T09:57:01;24.0;45.9
78467;SHT31;67759;51.972;5.650;2023-05-21T09:59:37;24.0;46.0
78467;SHT31;67759;51.972;5.650;2023-05-21T10:02:18;24.1;46.1
78467;SHT31;67759;51.972;5.650;2023-05-21T10:04:51;24.2;44.5
78467;SHT31;67759;51.972;5.650;2023-05-21T10:07:21;24.4;44.2
78467;SHT31;67759;51.972;5.650;2023-05-21T10:09:56;24.5;44.5
78467;SHT31;67759;51.972;5.650;2023-05-21T10:12:29;24.6;43.7
78467;SHT31;67759;51.972;5.650;2023-05-21T10:15:00;24.7;43.7
78467;SHT31;67759;51.972;5.650;2023-05-21T10:17:31;24.7;43.7
78467;SHT31;67759;51.972;5.650;2023-05-21T10:20:01;24.8;43.5
78467;SHT31;67759;51.972;5.650;2023-05-21T10:22:34;24.8;43.7
78467;SHT31;67759;51.972;5.650;2023-05-21T10:25:04;24.9;44.2
78467;SHT31;67759;51.972;5.650;2023-05-21T10:27:36;24.9;43.2
78467;SHT31;67759;51.972;5.650;2023-05-21T10:30:06;25.0;44.1
78467;SHT31;67759;51.972;5.650;2023-05-21T10:32:39;25.1;43.8
78467;SHT31;67759;51.972;5.650;2023-05-21T10:35:10;25.2;44.1
78467;SHT31;67759;51.972;5.650;2023-05-21T10:37:42;25.3;42.9
78467;SHT31;67759;51.972;5.650;2023-05-21T10:40:13;25.4;43.0
78467;SHT31;67759;51.972;5.650;2023-05-21T10:43:05;25.5;42.5
78467;SHT31;67759;51.972;5.650;2023-05-21T10:45:52;25.5;43.0
78467;SHT31;67759;51.972;5.650;2023-05-21T10:48:50;25.5;43.0
78467;SHT31;67759;51.972;5.650;2023-05-21T10:51:25;25.6;42.6
78467;SHT31;67759;51.972;5.650;2023-05-21T10:55:10;25.7;42.8
78467;SHT31;67759;51.972;5.650;2023-05-21T10:58:05;25.9;42.8
78467;SHT31;67759;51.972;5.650;2023-05-21T11:00:36;26.0;42.5
78467;SHT31;67759;51.972;5.650;2023-05-21T11:03:07;26.2;42.3
78467;SHT31;67759;51.972;5.650;2023-05-21T11:05:54;26.3;41.7
78467;SHT31;67759;51.972;5.650;2023-05-21T11:08:26;26.5;41.9
78467;SHT31;67759;51.972;5.650;2023-05-21T11:10:58;26.6;40.7
78467;SHT31;67759;51.972;5.650;2023-05-21T11:13:44;26.7;41.8
78467;SHT31;67759;51.972;5.650;2023-05-21T11:16:13;26.9;40.1
78467;SHT31;67759;51.972;5.650;2023-05-21T11:19:01;27.2;41.9
78467;SHT31;67759;51.972;5.650;2023-05-21T11:21:33;27.5;39.2
78467;SHT31;67759;51.972;5.650;2023-05-21T11:24:04;27.6;40.4
78467;SHT31;67759;51.972;5.650;2023-05-21T11:27:01;27.7;39.5
78467;SHT31;67759;51.972;5.650;2023-05-21T11:29:42;27.9;39.3
78467;SHT31;67759;51.972;5.650;2023-05-21T11:32:14;28.0;40.0
78467;SHT31;67759;51.972;5.650;2023-05-21T11:34:47;28.0;39.1
78467;SHT31;67759;51.972;5.650;2023-05-21T11:37:26;28.1;39.1
78467;SHT31;67759;51.972;5.650;2023-05-21T11:40:21;28.2;39.6
78467;SHT31;67759;51.972;5.650;2023-05-21T11:42:53;28.4;39.5
78467;SHT31;67759;51.972;5.650;2023-05-21T11:45:27;28.5;38.8
78467;SHT31;67759;51.972;5.650;2023-05-21T11:47:57;28.5;38.5
78467;SHT31;67759;51.972;5.650;2023-05-21T11:50:28;28.6;39.0
78467;SHT31;67759;51.972;5.650;2023-05-21T11:53:00;28.6;38.0
78467;SHT31;67759;51.972;5.650;2023-05-21T11:55:30;28.8;38.3
78467;SHT31;67759;51.972;5.650;2023-05-21T11:58:01;28.9;38.2
78467;SHT31;67759;51.972;5.650;2023-05-21T12:00:39;29.1;37.8
78467;SHT31;67759;51.972;5.650;2023-05-21T12:03:13;29.2;37.3
78467;SHT31;67759;51.972;5.650;2023-05-21T12:05:46;29.2;37.4
78467;SHT31;67759;51.972;5.650;2023-05-21T12:08:22;29.3;37.8
78467;SHT31;67759;51.972;5.650;2023-05-21T12:10:57;29.3;36.9
78467;SHT31;67759;51.972;5.650;2023-05-21T12:13:28;29.4;36.5
78467;SHT31;67759;51.972;5.650;2023-05-21T12:15:58;29.4;37.3
78467;SHT31;67759;51.972;5.650;2023-05-21T12:18:28;29.5;36.5
78467;SHT31;67759;51.972;5.650;2023-05-21T12:20:59;29.6;36.0
78467;SHT31;67759;51.972;5.650;2023-05-21T12:23:29;29.6;36.4
78467;SHT31;67759;51.972;5.650;2023-05-21T12:25:58;29.7;36.2
78467;SHT31;67759;51.972;5.650;2023-05-21T12:28:30;29.7;36.2
78467;SHT31;67759;51.972;5.650;2023-05-21T12:31:01;29.8;35.7
78467;SHT31;67759;51.972;5.650;2023-05-21T12:33:34;29.8;35.5
78467;SHT31;67759;51.972;5.650;2023-05-21T12:36:04;29.8;35.5
78467;SHT31;67759;51.972;5.650;2023-05-21T12:38:34;29.8;35.4
78467;SHT31;67759;51.972;5.650;2023-05-21T12:41:05;29.6;36.6
78467;SHT31;67759;51.972;5.650;2023-05-21T12:43:36;29.6;36.4
78467;SHT31;67759;51.972;5.650;2023-05-21T12:46:06;29.6;36.9
78467;SHT31;67759;51.972;5.650;2023-05-21T12:48:36;29.7;37.5
78467;SHT31;67759;51.972;5.650;2023-05-21T12:51:07;29.8;36.1
78467;SHT31;67759;51.972;5.650;2023-05-21T12:53:37;29.9;36.2
78467;SHT31;67759;51.972;5.650;2023-05-21T12:56:11;30.0;35.3
78467;SHT31;67759;51.972;5.650;2023-05-21T12:58:41;30.0;35.9
78467;SHT31;67759;51.972;5.650;2023-05-21T13:01:11;30.1;35.4
78467;SHT31;67759;51.972;5.650;2023-05-21T13:03:42;30.1;35.3
78467;SHT31;67759;51.972;5.650;2023-05-21T13:06:12;30.1;35.7
78467;SHT31;67759;51.972;5.650;2023-05-21T13:08:43;30.1;35.3
78467;SHT31;67759;51.972;5.650;2023-05-21T13:11:12;30.1;36.4
78467;SHT31;67759;51.972;5.650;2023-05-21T13:13:42;30.1;36.2
78467;SHT31;67759;51.972;5.650;2023-05-21T13:16:12;30.1;35.5
78467;SHT31;67759;51.972;5.650;2023-05-21T13:18:42;30.2;35.6
78467;SHT31;67759;51.972;5.650;2023-05-21T13:21:12;30.2;35.0
78467;SHT31;67759;51.972;5.650;2023-05-21T13:23:41;30.2;35.1
78467;SHT31;67759;51.972;5.650;2023-05-21T13:26:11;30.3;35.6
78467;SHT31;67759;51.972;5.650;2023-05-21T13:28:40;30.3;35.4
78467;SHT31;67759;51.972;5.650;2023-05-21T13:31:10;30.3;35.4
78467;SHT31;67759;51.972;5.650;2023-05-21T13:33:42;30.3;35.0
78467;SHT31;67759;51.972;5.650;2023-05-21T13:36:11;30.4;35.4
78467;SHT31;67759;51.972;5.650;2023-05-21T13:38:41;30.5;35.2
78467;SHT31;67759;51.972;5.650;2023-05-21T13:41:11;30.6;35.0
78467;SHT31;67759;51.972;5.650;2023-05-21T13:43:42;30.7;34.5
78467;SHT31;67759;51.972;5.650;2023-05-21T13:46:12;30.7;34.3
78467;SHT31;67759;51.972;5.650;2023-05-21T13:48:41;30.6;34.7
78467;SHT31;67759;51.972;5.650;2023-05-21T13:51:11;30.5;34.4
78467;SHT31;67759;51.972;5.650;2023-05-21T13:53:41;30.5;35.1
78467;SHT31;67759;51.972;5.650;2023-05-21T13:56:10;30.4;35.3
78467;SHT31;67759;51.972;5.650;2023-05-21T13:58:40;30.4;35.0
78467;SHT31;67759;51.972;5.650;2023-05-21T14:01:11;30.4;35.3
78467;SHT31;67759;51.972;5.650;2023-05-21T14:03:41;30.4;35.0
78467;SHT31;67759;51.972;5.650;2023-05-21T14:06:10;30.4;34.6
78467;SHT31;67759;51.972;5.650;2023-05-21T14:08:40;30.5;35.3
78467;SHT31;67759;51.972;5.650;2023-05-21T14:11:09;30.5;35.2
78467;SHT31;67759;51.972;5.650;2023-05-21T14:13:39;30.6;35.6
78467;SHT31;67759;51.972;5.650;2023-05-21T14:16:10;30.6;36.1
78467;SHT31;67759;51.972;5.650;2023-05-21T14:18:39;30.7;35.5
78467;SHT31;67759;51.972;5.650;2023-05-21T14:21:09;30.8;34.6
78467;SHT31;67759;51.972;5.650;2023-05-21T14:23:38;30.8;35.2
78467;SHT31;67759;51.972;5.650;2023-05-21T14:26:08;30.9;35.6
78467;SHT31;67759;51.972;5.650;2023-05-21T14:28:37;31.0;34.6
78467;SHT31;67759;51.972;5.650;2023-05-21T14:31:07;31.1;34.8
78467;SHT31;67759;51.972;5.650;2023-05-21T14:33:38;31.3;35.5
78467;SHT31;67759;51.972;5.650;2023-05-21T14:36:07;31.6;34.0
78467;SHT31;67759;51.972;5.650;2023-05-21T14:38:37;31.8;32.9
78467;SHT31;67759;51.972;5.650;2023-05-21T14:41:06;31.9;33.3
78467;SHT31;67759;51.972;5.650;2023-05-21T14:43:36;31.9;32.7
78467;SHT31;67759;51.972;5.650;2023-05-21T14:46:06;31.8;33.4
78467;SHT31;67759;51.972;5.650;2023-05-21T14:48:35;31.9;33.2
78467;SHT31;67759;51.972;5.650;2023-05-21T14:51:04;32.0;33.3
78467;SHT31;67759;51.972;5.650;2023-05-21T14:53:34;32.2;33.0
78467;SHT31;67759;51.972;5.650;2023-05-21T14:56:05;32.4;33.3
78467;SHT31;67759;51.972;5.650;2023-05-21T14:58:34;32.6;32.3
78467;SHT31;67759;51.972;5.650;2023-05-21T15:01:04;32.8;31.9
78467;SHT31;67759;51.972;5.650;2023-05-21T15:03:34;32.8;32.0
78467;SHT31;67759;51.972;5.650;2023-05-21T15:06:03;32.8;31.7
78467;SHT31;67759;51.972;5.650;2023-05-21T15:08:33;32.8;32.0
78467;SHT31;67759;51.972;5.650;2023-05-21T15:11:02;32.8;32.5
78467;SHT31;67759;51.972;5.650;2023-05-21T15:13:33;32.8;32.5
78467;SHT31;67759;51.972;5.650;2023-05-21T15:16:03;32.9;32.2
78467;SHT31;67759;51.972;5.650;2023-05-21T15:18:33;33.1;32.0
78467;SHT31;67759;51.972;5.650;2023-05-21T15:21:03;33.2;31.4
78467;SHT31;67759;51.972;5.650;2023-05-21T15:23:34;33.3;31.3
78467;SHT31;67759;51.972;5.650;2023-05-21T15:26:03;33.4;31.3
78467;SHT31;67759;51.972;5.650;2023-05-21T15:28:35;33.4;31.3
78467;SHT31;67759;51.972;5.650;2023-05-21T15:31:05;33.4;31.3
78467;SHT31;67759;51.972;5.650;2023-05-21T15:33:35;33.5;31.2
78467;SHT31;67759;51.972;5.650;2023-05-21T15:36:05;33.6;31.5
78467;SHT31;67759;51.972;5.650;2023-05-21T15:38:34;33.8;30.6
78467;SHT31;67759;51.972;5.650;2023-05-21T15:41:04;33.9;30.8
78467;SHT31;67759;51.972;5.650;2023-05-21T15:43:34;34.0;30.9
78467;SHT31;67759;51.972;5.650;2023-05-21T15:46:05;34.1;30.8
78467;SHT31;67759;51.972;5.650;2023-05-21T15:48:35;34.4;30.0
78467;SHT31;67759;51.972;5.650;2023-05-21T15:51:04;34.5;30.4
78467;SHT31;67759;51.972;5.650;2023-05-21T15:53:34;34.6;29.9
78467;SHT31;67759;51.972;5.650;2023-05-21T15:56:07;34.7;30.0
78467;SHT31;67759;51.972;5.650;2023-05-21T15:58:38;34.8;29.3
78467;SHT31;67759;51.972;5.650;2023-05-21T16:01:07;34.9;29.3
78467;SHT31;67759;51.972;5.650;2023-05-21T16:03:37;35.0;29.2
78467;SHT31;67759;51.972;5.650;2023-05-21T16:06:07;35.1;29.3
78467;SHT31;67759;51.972;5.650;2023-05-21T16:08:36;35.2;29.0
78467;SHT31;67759;51.972;5.650;2023-05-21T16:11:06;35.2;28.9
78467;SHT31;67759;51.972;5.650;2023-05-21T16:13:37;35.3;28.8
78467;SHT31;67759;51.972;5.650;2023-05-21T16:16:13;35.4;29.6
78467;SHT31;67759;51.972;5.650;2023-05-21T16:18:43;35.5;28.6
78467;SHT31;67759;51.972;5.650;2023-05-21T16:21:29;35.6;28.7
78467;SHT31;67759;51.972;5.650;2023-05-21T16:24:03;35.7;28.7
78467;SHT31;67759;51.972;5.650;2023-05-21T16:26:33;35.7;28.1
78467;SHT31;67759;51.972;5.650;2023-05-21T16:29:02;35.7;27.8